CheckWX is a tool to help pilots better visualize weather data.  It is not intended as a substitute for an official pre-flight weather briefing.

03:02:49 UTC

KLUA METAR
Luray Caverns Airport
Luray, Virginia, USA
Current

28 mins ago

KLUA 180235Z AUTO 20008KT 7SM RA SCT024 BKN049 OVC085 02/02 A2986 RMK AO2 P0003
Observed
Feb-18 @ 02:35 UTC
Wind
  • 200° at 8 KTS
Visibility
7 SM
Flight Rules
VFR
Conditions
Rain
Cloud Levels
  • Scattered at 2,400' AGL
  • Broken at 4,900' AGL
  • Overcast at 8,500' AGL
Temperature
C / 36°F
Dewpoint
C / 36°F
Humidity
100%
Altimeter
29.86" Hg
Pressure
1011.22 hPa
Current Rain
0.03"
Previous

48 mins ago

KLUA 180215Z AUTO 19004KT 4SM RA SCT007 BKN024 OVC075 01/01 A2988 RMK AO2 P0001
Observed
Feb-18 @ 02:15 UTC
Wind
  • 190° at 4 KTS
Visibility
4 SM
Flight Rules
MVFR
Conditions
Rain
Cloud Levels
  • Scattered at 700' AGL
  • Broken at 2,400' AGL
  • Overcast at 7,500' AGL
Temperature
C / 34°F
Dewpoint
C / 34°F
Humidity
100%
Altimeter
29.88" Hg
Pressure
1011.82 hPa
Current Rain
0.01"
Previous

1 hour ago

KLUA 180155Z AUTO 21007KT 5SM RA BKN007 BKN023 OVC050 02/02 A2988 RMK AO2 P0003
Observed
Feb-18 @ 01:55 UTC
Wind
  • 210° at 7 KTS
Visibility
5 SM
Flight Rules
IFR
Conditions
Rain
Cloud Levels
  • Broken at 700' AGL
  • Broken at 2,300' AGL
  • Overcast at 5,000' AGL
Temperature
C / 36°F
Dewpoint
C / 36°F
Humidity
100%
Altimeter
29.88" Hg
Pressure
1011.82 hPa
Current Rain
0.03"